Time;durP1;ratioP1;P1;durP2;ratioP2;P2;SDS_P1;SDS_P2;PMS_P1;PMS_P2;Temp;Humidity;BMP_temperature;BMP_pressure;BME280_temperature;BME280_humidity;BME280_pressure;Samples;Min_cycle;Max_cycle;Signal;HPM_P1;HPM_P2
2021/07/16 00:00:42;;;;;;;4.70;2.05;;;23.00;96.70;;;;;;5039189;28;20047;-73
2021/07/16 00:03:10;;;;;;;6.05;2.25;;;23.00;96.70;;;;;;5054867;28;20068;-72
2021/07/16 00:05:39;;;;;;;5.45;2.03;;;23.00;96.70;;;;;;5056726;28;20071;-73
2021/07/16 00:08:09;;;;;;;5.70;1.88;;;23.00;96.70;;;;;;5058987;28;20461;-73
2021/07/16 00:10:37;;;;;;;5.38;2.00;;;22.90;96.70;;;;;;5060029;28;20421;-73
2021/07/16 00:13:06;;;;;;;6.60;2.00;;;22.90;96.70;;;;;;5041657;28;20060;-73
2021/07/16 00:15:34;;;;;;;5.55;2.03;;;23.00;96.70;;;;;;5019617;28;20068;-73
2021/07/16 00:18:03;;;;;;;5.82;1.98;;;23.00;96.70;;;;;;5024448;28;20406;-73
2021/07/16 00:20:31;;;;;;;5.45;1.90;;;23.00;96.70;;;;;;5034981;28;20049;-73
2021/07/16 00:22:59;;;;;;;6.15;1.70;;;23.00;96.70;;;;;;5042534;28;20495;-73
2021/07/16 00:25:29;;;;;;;3.38;1.80;;;23.10;96.70;;;;;;5043988;28;20116;-73
2021/07/16 00:27:57;;;;;;;5.25;1.85;;;23.10;96.70;;;;;;5043442;28;20372;-73
2021/07/16 00:30:26;;;;;;;3.38;1.35;;;23.20;96.70;;;;;;5044462;28;20044;-73
2021/07/16 00:32:54;;;;;;;6.10;2.33;;;23.20;96.70;;;;;;5044366;28;20037;-73
2021/07/16 00:35:22;;;;;;;3.70;1.52;;;23.20;96.70;;;;;;5041211;28;20045;-74
2021/07/16 00:37:50;;;;;;;5.18;1.80;;;23.20;96.70;;;;;;5045905;28;20551;-73
2021/07/16 00:40:19;;;;;;;3.30;1.40;;;23.20;96.70;;;;;;5041789;28;20663;-73
2021/07/16 00:42:48;;;;;;;3.92;1.65;;;23.20;96.70;;;;;;5041592;28;20095;-73
2021/07/16 00:45:17;;;;;;;3.70;1.70;;;23.20;96.70;;;;;;5040626;28;20036;-73
2021/07/16 00:47:46;;;;;;;5.55;1.92;;;23.20;96.70;;;;;;5046586;28;20045;-73
2021/07/16 00:50:18;;;;;;;5.85;2.03;;;23.20;96.70;;;;;;5042665;28;20128;-73
2021/07/16 00:52:46;;;;;;;7.25;2.05;;;23.20;96.70;;;;;;5042605;28;20469;-73
2021/07/16 00:55:17;;;;;;;5.00;1.80;;;23.10;96.70;;;;;;5046644;28;20055;-73
2021/07/16 00:57:45;;;;;;;6.32;2.10;;;23.10;96.70;;;;;;5047200;28;20568;-74
2021/07/16 01:00:17;;;;;;;6.65;2.20;;;23.00;96.70;;;;;;5043077;28;20094;-73
2021/07/16 01:02:47;;;;;;;3.60;1.75;;;23.00;96.70;;;;;;5022679;28;20044;-73
2021/07/16 01:05:17;;;;;;;5.63;1.80;;;23.00;96.70;;;;;;5044582;28;20131;-73
2021/07/16 01:07:46;;;;;;;5.45;2.30;;;23.10;96.70;;;;;;5043359;28;20052;-73
2021/07/16 01:10:16;;;;;;;4.68;1.92;;;23.00;96.70;;;;;;5043420;28;20056;-73
2021/07/16 01:12:45;;;;;;;5.82;2.47;;;23.00;96.70;;;;;;5043520;28;20045;-73
2021/07/16 01:15:14;;;;;;;5.70;1.70;;;23.10;96.70;;;;;;5046943;28;20130;-73
2021/07/16 01:17:43;;;;;;;6.72;2.08;;;23.10;96.70;;;;;;5030444;28;20529;-73
2021/07/16 01:20:13;;;;;;;5.70;2.03;;;23.00;96.70;;;;;;5067903;28;20052;-73
2021/07/16 01:22:43;;;;;;;6.68;2.08;;;23.00;96.70;;;;;;5064264;28;20033;-73
2021/07/16 01:25:15;;;;;;;5.40;2.45;;;23.00;96.70;;;;;;5045709;28;20041;-74
2021/07/16 01:27:45;;;;;;;4.53;1.80;;;22.90;96.70;;;;;;5061248;28;20382;-73
2021/07/16 01:30:16;;;;;;;4.50;1.90;;;23.00;96.70;;;;;;5032226;28;20489;-73
2021/07/16 01:32:45;;;;;;;4.88;1.77;;;23.00;96.70;;;;;;5047048;28;20128;-73
2021/07/16 01:35:14;;;;;;;3.80;1.90;;;22.90;96.70;;;;;;5044780;28;20052;-73
2021/07/16 01:37:44;;;;;;;6.85;1.80;;;22.90;96.70;;;;;;5041765;28;20041;-73
2021/07/16 01:40:16;;;;;;;5.22;1.98;;;23.00;96.70;;;;;;5028359;28;20512;-73
2021/07/16 01:42:46;;;;;;;5.07;1.73;;;22.90;96.70;;;;;;5043126;28;20466;-73
2021/07/16 01:45:16;;;;;;;3.67;1.70;;;22.90;96.70;;;;;;5063282;28;20040;-73
2021/07/16 01:47:46;;;;;;;4.18;1.75;;;22.80;96.70;;;;;;5042690;28;20343;-73
2021/07/16 01:50:16;;;;;;;4.78;1.63;;;22.90;96.70;;;;;;5058254;28;20193;-72
2021/07/16 01:52:46;;;;;;;3.85;1.88;;;22.90;96.70;;;;;;5041045;28;20120;-73
2021/07/16 01:55:17;;;;;;;4.22;1.65;;;22.90;96.70;;;;;;5062077;28;20551;-73
2021/07/16 01:57:48;;;;;;;4.53;1.60;;;22.90;96.70;;;;;;5058312;28;20075;-73
2021/07/16 02:00:18;;;;;;;3.40;1.75;;;22.90;96.70;;;;;;5041175;28;20049;-73
2021/07/16 02:02:47;;;;;;;5.88;2.22;;;22.90;96.70;;;;;;5059537;28;20044;-73
2021/07/16 02:05:17;;;;;;;2.90;1.65;;;22.90;96.70;;;;;;5058724;28;20037;-73
2021/07/16 02:07:46;;;;;;;4.80;1.90;;;22.80;96.70;;;;;;5057450;28;20121;-73
2021/07/16 02:10:16;;;;;;;4.65;1.80;;;22.90;96.70;;;;;;5061673;28;20041;-73
2021/07/16 02:12:44;;;;;;;6.32;2.30;;;22.90;96.70;;;;;;5062742;28;20039;-73
2021/07/16 02:15:15;;;;;;;4.70;1.80;;;22.90;96.70;;;;;;5033907;28;20053;-73
2021/07/16 02:17:43;;;;;;;6.95;2.28;;;22.90;96.70;;;;;;5039574;28;20045;-73
2021/07/16 02:20:23;;;;;;;6.18;2.13;;;22.90;96.70;;;;;;5039826;28;20041;-73
2021/07/16 02:22:52;;;;;;;3.25;1.98;;;22.80;96.70;;;;;;5042627;28;20041;-73
2021/07/16 02:25:23;;;;;;;3.35;1.92;;;22.80;96.70;;;;;;5036326;28;20045;-73
2021/07/16 02:27:54;;;;;;;6.68;2.05;;;22.80;96.70;;;;;;5041362;28;20040;-73
2021/07/16 02:30:24;;;;;;;3.25;1.58;;;22.90;96.70;;;;;;5037741;28;20494;-73
2021/07/16 02:32:53;;;;;;;3.83;2.13;;;22.90;96.70;;;;;;5042326;28;20504;-73
2021/07/16 02:35:22;;;;;;;4.82;2.58;;;22.90;96.70;;;;;;5021141;28;20040;-73
2021/07/16 02:37:51;;;;;;;6.55;2.15;;;22.80;96.70;;;;;;5042847;28;20064;-73
2021/07/16 02:40:21;;;;;;;6.50;1.90;;;22.90;96.70;;;;;;5039282;28;20509;-73
2021/07/16 02:42:49;;;;;;;6.13;1.83;;;22.80;96.70;;;;;;5041918;28;20518;-73
2021/07/16 02:45:20;;;;;;;4.18;1.83;;;22.80;96.70;;;;;;5036241;28;20044;-73
2021/07/16 02:47:50;;;;;;;3.40;1.90;;;22.80;96.70;;;;;;5036041;28;20044;-73
2021/07/16 02:50:21;;;;;;;3.83;1.77;;;22.70;96.70;;;;;;5041554;28;20045;-73
2021/07/16 02:52:50;;;;;;;3.72;1.73;;;22.70;96.70;;;;;;5043184;28;20055;-73
2021/07/16 02:55:19;;;;;;;6.47;2.20;;;22.70;96.70;;;;;;5040250;28;20044;-73
2021/07/16 02:57:50;;;;;;;5.18;2.17;;;22.70;96.70;;;;;;5038157;28;20043;-73
2021/07/16 03:00:21;;;;;;;5.57;2.22;;;22.60;96.70;;;;;;5040113;28;20064;-73
2021/07/16 03:02:51;;;;;;;9.82;2.75;;;22.60;96.70;;;;;;5038793;28;20287;-73
2021/07/16 03:05:24;;;;;;;7.47;2.65;;;22.60;96.70;;;;;;5036161;28;20049;-73
2021/07/16 03:07:52;;;;;;;4.50;1.88;;;22.50;96.70;;;;;;5040930;28;20049;-73
2021/07/16 03:10:24;;;;;;;5.78;2.03;;;22.50;96.70;;;;;;5029875;28;20491;-73
2021/07/16 03:12:54;;;;;;;4.65;1.80;;;22.50;96.70;;;;;;5036718;28;20034;-73
2021/07/16 03:15:24;;;;;;;3.33;1.92;;;22.40;96.70;;;;;;5036783;28;20433;-73
2021/07/16 03:17:53;;;;;;;5.75;1.95;;;22.40;96.70;;;;;;5036353;28;20455;-73
2021/07/16 03:20:24;;;;;;;4.43;1.85;;;22.40;96.70;;;;;;5054262;28;20076;-73
2021/07/16 03:22:53;;;;;;;4.93;1.88;;;22.40;96.70;;;;;;5023266;28;20087;-73
2021/07/16 03:25:23;;;;;;;5.90;1.80;;;22.30;96.70;;;;;;5040514;28;20060;-71
2021/07/16 03:27:58;;;;;;;7.82;2.08;;;22.30;96.70;;;;;;5039378;28;20522;-73
2021/07/16 03:30:29;;;;;;;3.53;1.55;;;22.30;96.70;;;;;;5041393;28;20095;-73
2021/07/16 03:32:58;;;;;;;3.92;1.80;;;22.30;96.70;;;;;;5037252;28;20041;-73
2021/07/16 03:35:27;;;;;;;3.53;1.83;;;22.20;96.70;;;;;;5040979;28;20041;-72
2021/07/16 03:37:56;;;;;;;4.18;2.03;;;22.20;96.70;;;;;;5039121;28;20037;-73
2021/07/16 03:40:29;;;;;;;4.38;1.80;;;22.20;96.70;;;;;;5036883;28;20072;-73
2021/07/16 03:43:00;;;;;;;4.57;1.83;;;22.20;96.70;;;;;;5037781;28;20071;-73
2021/07/16 03:45:34;;;;;;;3.00;1.60;;;22.20;96.70;;;;;;5040334;28;20057;-73
2021/07/16 03:48:04;;;;;;;3.60;2.00;;;22.10;96.70;;;;;;5042013;28;20145;-73
2021/07/16 03:50:32;;;;;;;3.83;1.65;;;22.10;96.70;;;;;;5037822;28;20045;-73
2021/07/16 03:53:01;;;;;;;5.05;2.08;;;22.10;96.70;;;;;;5043017;28;20053;-73
2021/07/16 03:55:30;;;;;;;9.52;2.28;;;22.10;96.70;;;;;;5037389;28;20065;-73
2021/07/16 03:58:00;;;;;;;3.83;1.63;;;22.10;96.70;;;;;;5037850;28;20041;-73
2021/07/16 04:00:30;;;;;;;2.78;1.65;;;22.10;96.70;;;;;;5033891;28;20395;-73
2021/07/16 04:03:00;;;;;;;6.80;1.85;;;22.10;96.70;;;;;;5035585;28;20051;-73
2021/07/16 04:05:31;;;;;;;2.72;1.35;;;22.20;96.70;;;;;;5038290;28;20041;-73
2021/07/16 04:08:04;;;;;;;2.58;1.58;;;22.20;96.70;;;;;;5039369;28;20572;-73
2021/07/16 04:10:34;;;;;;;6.90;1.88;;;22.20;96.70;;;;;;5037875;28;20279;-73
2021/07/16 04:13:07;;;;;;;4.32;1.63;;;22.20;96.70;;;;;;5015219;28;20126;-73
2021/07/16 04:15:36;;;;;;;4.18;1.70;;;22.30;96.70;;;;;;5042123;28;20113;-73
2021/07/16 04:18:06;;;;;;;3.45;1.52;;;22.30;96.70;;;;;;5047815;28;20041;-73
2021/07/16 04:20:36;;;;;;;3.28;1.65;;;22.30;96.70;;;;;;5039376;28;20064;-73
2021/07/16 04:23:05;;;;;;;4.57;1.35;;;22.30;96.70;;;;;;5037967;28;20140;-73
2021/07/16 04:25:34;;;;;;;4.60;1.50;;;22.30;96.70;;;;;;5051660;28;20131;-73
2021/07/16 04:28:04;;;;;;;3.45;2.03;;;22.30;96.70;;;;;;5060441;28;20119;-73
2021/07/16 04:30:34;;;;;;;3.25;1.63;;;22.30;96.70;;;;;;5038704;28;20503;-73
2021/07/16 04:33:05;;;;;;;2.78;1.35;;;22.40;96.70;;;;;;5042411;28;20037;-73
2021/07/16 04:35:33;;;;;;;5.75;1.67;;;22.40;96.70;;;;;;5043457;28;20058;-73
2021/07/16 04:38:02;;;;;;;3.58;1.75;;;22.50;96.70;;;;;;5057198;28;20114;-73
2021/07/16 04:40:34;;;;;;;3.90;1.58;;;22.50;96.70;;;;;;5061117;28;20150;-73
2021/07/16 04:43:04;;;;;;;5.38;1.52;;;22.50;96.70;;;;;;5041460;28;20460;-73
2021/07/16 04:45:37;;;;;;;4.57;1.63;;;22.50;96.70;;;;;;5039886;28;20040;-73
2021/07/16 04:48:07;;;;;;;4.15;2.10;;;22.40;96.70;;;;;;5034980;28;20110;-73
2021/07/16 04:50:37;;;;;;;4.93;1.48;;;22.40;96.70;;;;;;5033911;28;20048;-73
2021/07/16 04:53:06;;;;;;;3.15;1.50;;;22.40;96.70;;;;;;5056029;28;20459;-73
2021/07/16 04:55:35;;;;;;;4.75;1.30;;;22.50;96.70;;;;;;5055429;28;20123;-73
2021/07/16 04:58:05;;;;;;;2.53;1.48;;;22.40;96.70;;;;;;5055949;28;20044;-73
2021/07/16 05:00:33;;;;;;;4.03;1.33;;;22.40;96.70;;;;;;5040357;28;20569;-73
2021/07/16 05:03:02;;;;;;;3.10;1.50;;;22.40;96.70;;;;;;5039717;28;20059;-73
2021/07/16 05:05:31;;;;;;;6.43;1.88;;;22.40;96.70;;;;;;5034748;28;20047;-73
2021/07/16 05:07:59;;;;;;;2.90;1.70;;;22.40;96.70;;;;;;5042095;28;20490;-73
2021/07/16 05:10:28;;;;;;;4.32;1.42;;;22.40;96.70;;;;;;5059699;28;20048;-73
2021/07/16 05:12:56;;;;;;;3.17;1.52;;;22.50;96.70;;;;;;5042372;28;20068;-73
2021/07/16 05:15:26;;;;;;;6.55;1.92;;;22.50;96.70;;;;;;5060615;28;20063;-73
2021/07/16 05:17:55;;;;;;;4.57;1.80;;;22.50;96.70;;;;;;5060786;28;20515;-73
2021/07/16 05:20:24;;;;;;;3.58;1.88;;;22.40;96.70;;;;;;5064456;28;20101;-73
2021/07/16 05:22:55;;;;;;;4.30;1.80;;;22.50;96.70;;;;;;5039051;28;20494;-73
2021/07/16 05:25:24;;;;;;;4.22;1.73;;;22.50;96.70;;;;;;5062715;28;20048;-73
2021/07/16 05:27:52;;;;;;;4.40;1.52;;;22.50;96.70;;;;;;5043612;28;20509;-73
2021/07/16 05:30:21;;;;;;;4.97;1.58;;;22.50;96.70;;;;;;5041079;28;20891;-73
2021/07/16 05:32:51;;;;;;;2.80;1.55;;;22.50;96.70;;;;;;5053990;28;20052;-73
2021/07/16 05:35:21;;;;;;;2.70;1.50;;;22.40;96.70;;;;;;5063955;28;20044;-73
2021/07/16 05:37:51;;;;;;;4.30;1.95;;;22.40;96.70;;;;;;5058218;28;20402;-73
2021/07/16 05:40:19;;;;;;;5.90;2.28;;;22.50;96.70;;;;;;5045984;28;20102;-73
2021/07/16 05:42:48;;;;;;;5.15;2.95;;;22.40;96.70;;;;;;5044731;28;20588;-73
2021/07/16 05:45:16;;;;;;;11.20;4.35;;;22.40;96.70;;;;;;5060561;28;20036;-73
2021/07/16 05:47:45;;;;;;;9.57;5.07;;;22.40;96.70;;;;;;5063014;28;20051;-73
2021/07/16 05:50:15;;;;;;;9.77;5.13;;;22.50;96.70;;;;;;5064374;28;20048;-73
2021/07/16 05:52:44;;;;;;;9.02;5.05;;;22.50;96.70;;;;;;5058741;28;20068;-73
2021/07/16 05:55:16;;;;;;;6.00;3.90;;;22.60;96.70;;;;;;5044475;28;20036;-73
2021/07/16 05:57:45;;;;;;;8.32;3.90;;;22.60;96.70;;;;;;5058272;28;20131;-73
2021/07/16 06:00:14;;;;;;;8.23;3.25;;;22.60;96.70;;;;;;5047087;28;20257;-74
2021/07/16 06:02:43;;;;;;;5.13;2.47;;;22.60;96.70;;;;;;5061027;28;20095;-73
2021/07/16 06:05:12;;;;;;;6.10;3.30;;;22.60;96.70;;;;;;5060176;28;20051;-73
2021/07/16 06:07:44;;;;;;;5.32;2.67;;;22.60;96.70;;;;;;5061771;28;20044;-73
2021/07/16 06:10:13;;;;;;;4.93;3.05;;;22.60;96.70;;;;;;5059756;28;20551;-72
2021/07/16 06:12:43;;;;;;;7.97;4.45;;;22.60;96.70;;;;;;5058990;28;20096;-72
2021/07/16 06:15:13;;;;;;;12.80;6.75;;;22.50;96.70;;;;;;5038767;28;20253;-73
2021/07/16 06:17:41;;;;;;;11.77;5.22;;;22.50;96.70;;;;;;5060539;28;20119;-74
2021/07/16 06:20:11;;;;;;;11.00;5.20;;;22.50;96.70;;;;;;5044977;28;20141;-73
2021/07/16 06:22:42;;;;;;;8.25;4.13;;;22.50;96.70;;;;;;5027321;28;20112;-73
2021/07/16 06:25:12;;;;;;;7.95;4.55;;;22.50;96.70;;;;;;5060362;28;20036;-73
2021/07/16 06:27:41;;;;;;;9.45;4.85;;;22.60;96.70;;;;;;5024809;28;20110;-73
2021/07/16 06:30:10;;;;;;;10.77;4.72;;;22.50;96.70;;;;;;5044777;28;20051;-73
2021/07/16 06:32:39;;;;;;;5.70;3.53;;;22.50;96.70;;;;;;5031176;28;20033;-73
2021/07/16 06:35:09;;;;;;;7.63;3.58;;;22.60;96.70;;;;;;5060074;28;20082;-73
2021/07/16 06:37:37;;;;;;;7.28;3.22;;;22.60;96.70;;;;;;5043353;28;20044;-72
2021/07/16 06:40:09;;;;;;;5.63;3.05;;;22.60;96.70;;;;;;5047189;28;20037;-72
2021/07/16 06:42:37;;;;;;;6.05;2.72;;;22.60;96.70;;;;;;5047343;28;20509;-73
2021/07/16 06:45:06;;;;;;;5.60;2.13;;;22.60;96.70;;;;;;5044841;28;20094;-72
2021/07/16 06:47:35;;;;;;;5.82;2.47;;;22.60;96.70;;;;;;5058397;28;20075;-73
2021/07/16 06:50:04;;;;;;;5.25;2.00;;;22.70;96.70;;;;;;5040828;28;20041;-73
2021/07/16 06:52:35;;;;;;;4.28;1.75;;;22.70;96.70;;;;;;5043422;28;20040;-73
2021/07/16 06:55:07;;;;;;;4.55;2.25;;;22.80;96.70;;;;;;5056843;28;20040;-73
2021/07/16 06:57:35;;;;;;;3.80;1.45;;;22.80;96.70;;;;;;5038716;28;20406;-72
2021/07/16 07:00:05;;;;;;;4.97;2.22;;;22.80;96.70;;;;;;5056099;28;20036;-73
2021/07/16 07:02:33;;;;;;;6.57;2.33;;;22.80;96.70;;;;;;5043372;28;20148;-73
2021/07/16 07:05:03;;;;;;;5.82;2.38;;;22.80;96.70;;;;;;5046164;28;20567;-73
2021/07/16 07:07:31;;;;;;;4.82;2.10;;;22.90;96.70;;;;;;5040206;28;20098;-73
2021/07/16 07:09:59;;;;;;;5.68;2.13;;;23.00;96.70;;;;;;5060150;28;20045;-73
2021/07/16 07:12:30;;;;;;;7.03;2.35;;;23.00;96.70;;;;;;5059005;28;20052;-73
2021/07/16 07:14:58;;;;;;;6.15;1.63;;;23.00;96.70;;;;;;5040984;28;20049;-73
2021/07/16 07:17:30;;;;;;;4.30;1.60;;;23.00;96.70;;;;;;5040913;28;20048;-73
2021/07/16 07:19:58;;;;;;;3.92;1.55;;;23.00;96.70;;;;;;5025809;28;20453;-73
2021/07/16 07:22:27;;;;;;;4.18;1.48;;;23.10;96.70;;;;;;5043796;28;20127;-73
2021/07/16 07:24:55;;;;;;;3.80;1.45;;;23.10;96.70;;;;;;5061486;28;20041;-73
2021/07/16 07:27:23;;;;;;;4.53;1.52;;;23.20;96.70;;;;;;5057894;28;20042;-73
2021/07/16 07:29:53;;;;;;;3.92;1.90;;;23.20;96.70;;;;;;5058724;28;20396;-73
2021/07/16 07:32:21;;;;;;;4.18;1.55;;;23.20;96.70;;;;;;5021114;28;20135;-73
2021/07/16 07:34:50;;;;;;;2.85;1.33;;;23.30;96.70;;;;;;5056811;28;20032;-72
2021/07/16 07:37:18;;;;;;;3.97;1.20;;;23.20;96.70;;;;;;5020517;28;20131;-72
2021/07/16 07:39:46;;;;;;;4.38;1.73;;;23.30;96.70;;;;;;5059519;28;20037;-72
2021/07/16 07:42:17;;;;;;;4.22;1.85;;;23.30;96.70;;;;;;5023526;28;20048;-72
2021/07/16 07:44:46;;;;;;;3.40;1.00;;;23.30;96.70;;;;;;5044203;28;20641;-73
2021/07/16 07:47:16;;;;;;;3.78;1.25;;;23.30;96.70;;;;;;5043259;28;20472;-73
2021/07/16 07:49:45;;;;;;;2.08;1.00;;;23.30;96.70;;;;;;5025528;28;20049;-73
2021/07/16 07:52:13;;;;;;;3.35;0.90;;;23.40;96.70;;;;;;5059905;28;20122;-73
2021/07/16 07:54:42;;;;;;;3.85;1.23;;;23.30;96.70;;;;;;5023859;28;20060;-73
2021/07/16 07:57:10;;;;;;;2.65;0.90;;;23.30;96.70;;;;;;5041552;28;20126;-73
2021/07/16 07:59:40;;;;;;;5.60;1.52;;;23.30;96.70;;;;;;5061753;28;20040;-73
2021/07/16 08:02:09;;;;;;;3.67;1.70;;;23.30;96.70;;;;;;5042143;28;20048;-73
2021/07/16 08:04:41;;;;;;;3.38;1.00;;;23.30;96.70;;;;;;5061919;28;20517;-73
2021/07/16 08:07:09;;;;;;;3.72;1.48;;;23.30;96.70;;;;;;5057337;28;20047;-73
2021/07/16 08:09:38;;;;;;;4.50;1.45;;;23.30;96.70;;;;;;5058251;28;20117;-73
2021/07/16 08:12:08;;;;;;;2.40;0.88;;;23.30;96.70;;;;;;5059418;28;20110;-73
2021/07/16 08:14:36;;;;;;;2.85;0.90;;;23.40;96.70;;;;;;5043265;28;20154;-73
2021/07/16 08:17:05;;;;;;;4.38;1.40;;;23.40;96.70;;;;;;5037933;28;20091;-73
2021/07/16 08:19:35;;;;;;;4.03;1.20;;;23.50;96.70;;;;;;5037975;28;20724;-73
2021/07/16 08:22:04;;;;;;;5.88;1.25;;;23.50;96.70;;;;;;5019131;28;20162;-73
2021/07/16 08:24:33;;;;;;;2.20;1.20;;;23.50;96.70;;;;;;5042533;28;20067;-73
2021/07/16 08:27:01;;;;;;;2.35;0.90;;;23.60;96.70;;;;;;5034672;28;20071;-73
2021/07/16 08:29:29;;;;;;;3.70;1.40;;;23.60;96.70;;;;;;5034043;28;20426;-73
2021/07/16 08:31:58;;;;;;;2.58;1.05;;;23.60;96.70;;;;;;5041980;28;20045;-73
2021/07/16 08:34:27;;;;;;;3.05;1.00;;;23.60;96.70;;;;;;5038290;28;20546;-73
2021/07/16 08:36:56;;;;;;;1.77;0.90;;;23.60;96.70;;;;;;5039008;28;20037;-73
2021/07/16 08:39:27;;;;;;;2.88;1.00;;;23.70;96.70;;;;;;5037911;28;20045;-73
2021/07/16 08:41:56;;;;;;;3.17;1.10;;;23.70;96.70;;;;;;5039444;28;20036;-73
2021/07/16 08:44:27;;;;;;;2.47;0.90;;;23.80;96.70;;;;;;5035201;28;20556;-73
2021/07/16 08:46:55;;;;;;;8.98;1.58;;;23.90;96.70;;;;;;5039683;28;20040;-72
2021/07/16 08:49:25;;;;;;;1.67;0.80;;;24.00;96.70;;;;;;5033199;28;20107;-72
2021/07/16 08:51:54;;;;;;;2.67;1.10;;;24.10;96.70;;;;;;5045317;28;20033;-73
2021/07/16 08:54:23;;;;;;;3.00;1.10;;;24.20;96.70;;;;;;5019687;28;20057;-73
2021/07/16 08:56:52;;;;;;;3.28;1.08;;;24.20;96.70;;;;;;5024101;28;20056;-73
2021/07/16 08:59:21;;;;;;;4.40;1.00;;;24.20;96.70;;;;;;5041208;28;20446;-73
2021/07/16 09:01:50;;;;;;;2.80;1.10;;;24.30;96.70;;;;;;5043881;28;20053;-73
2021/07/16 09:04:23;;;;;;;4.30;1.40;;;24.30;96.70;;;;;;5042583;28;20044;-73
2021/07/16 09:06:54;;;;;;;3.03;1.20;;;24.50;96.70;;;;;;5039670;28;20284;-73
2021/07/16 09:09:23;;;;;;;5.00;0.80;;;24.70;96.70;;;;;;5039619;28;20070;-74
2021/07/16 09:11:54;;;;;;;2.35;1.05;;;24.80;96.70;;;;;;5037091;28;20507;-73
2021/07/16 09:14:25;;;;;;;3.30;0.90;;;24.80;96.70;;;;;;5040863;28;20049;-73
2021/07/16 09:16:59;;;;;;;2.55;1.00;;;24.90;96.70;;;;;;5060701;28;20056;-73
2021/07/16 09:19:36;;;;;;;2.03;1.02;;;24.90;96.70;;;;;;5064414;28;20036;-73
2021/07/16 09:22:09;;;;;;;4.05;1.30;;;25.00;96.70;;;;;;5046718;28;20052;-73
2021/07/16 09:24:42;;;;;;;4.20;0.95;;;25.10;96.70;;;;;;5065498;28;20495;-73
2021/07/16 09:27:34;;;;;;;1.98;1.17;;;25.30;96.70;;;;;;5063226;28;20091;-73
2021/07/16 09:30:19;;;;;;;4.68;1.08;;;25.20;96.70;;;;;;5062614;28;20132;-73
2021/07/16 09:32:48;;;;;;;3.03;0.82;;;25.30;96.70;;;;;;5063754;28;20103;-73
2021/07/16 09:35:19;;;;;;;3.90;0.90;;;25.30;96.70;;;;;;5064071;28;20959;-73
2021/07/16 09:37:53;;;;;;;3.13;1.10;;;25.40;96.70;;;;;;5055852;28;20444;-73
2021/07/16 09:40:26;;;;;;;2.58;0.75;;;25.50;96.70;;;;;;5032643;28;20045;-73
2021/07/16 09:43:15;;;;;;;4.30;1.40;;;25.60;96.70;;;;;;5058425;28;20536;-73
2021/07/16 09:45:52;;;;;;;5.10;1.98;;;25.70;96.70;;;;;;5048195;28;20494;-73
2021/07/16 09:48:23;;;;;;;3.92;1.27;;;25.70;96.70;;;;;;5062439;28;20525;-73
2021/07/16 09:51:14;;;;;;;2.45;1.20;;;25.60;96.70;;;;;;5044102;28;20044;-73
2021/07/16 09:53:44;;;;;;;1.52;0.90;;;25.50;96.70;;;;;;5060947;28;20494;-73
2021/07/16 09:56:14;;;;;;;2.90;1.15;;;25.40;96.70;;;;;;5045642;28;20042;-73
2021/07/16 09:58:44;;;;;;;3.15;1.25;;;25.50;96.70;;;;;;5061433;28;20387;-73
2021/07/16 10:01:13;;;;;;;3.95;0.88;;;25.50;96.70;;;;;;5043326;28;20045;-73
2021/07/16 10:03:42;;;;;;;5.45;1.10;;;25.50;96.70;;;;;;5059376;28;20072;-73
2021/07/16 10:06:15;;;;;;;3.45;0.82;;;25.40;96.70;;;;;;5045194;28;20045;-73
2021/07/16 10:08:43;;;;;;;3.40;1.00;;;25.30;96.70;;;;;;5065571;28;20380;-73
2021/07/16 10:11:12;;;;;;;2.33;1.45;;;25.20;96.70;;;;;;5028899;28;20140;-73
2021/07/16 10:13:41;;;;;;;4.93;1.50;;;25.20;96.70;;;;;;5042747;28;20082;-72
2021/07/16 10:16:14;;;;;;;4.13;1.40;;;25.20;96.70;;;;;;5063422;28;20155;-73
2021/07/16 10:18:43;;;;;;;3.03;1.38;;;25.00;96.70;;;;;;5048423;28;20048;-73
2021/07/16 10:21:11;;;;;;;5.00;1.20;;;25.00;96.70;;;;;;5059763;28;20037;-72
2021/07/16 10:23:40;;;;;;;3.60;1.52;;;25.00;96.70;;;;;;5043514;28;20044;-72
2021/07/16 10:26:10;;;;;;;2.58;1.13;;;24.90;96.70;;;;;;5058246;28;20127;-73
2021/07/16 10:28:43;;;;;;;3.90;1.27;;;24.90;96.70;;;;;;5045547;28;20128;-72
2021/07/16 10:31:39;;;;;;;5.28;1.73;;;25.00;96.70;;;;;;5062704;28;20094;-72
2021/07/16 10:34:32;;;;;;;3.50;1.27;;;25.10;96.70;;;;;;5062821;28;20550;-72
2021/07/16 10:37:02;;;;;;;3.40;1.15;;;25.00;96.70;;;;;;5045486;28;20577;-72
2021/07/16 10:39:50;;;;;;;2.65;1.20;;;24.90;96.70;;;;;;5028052;28;20051;-73
2021/07/16 10:42:48;;;;;;;3.70;1.10;;;24.90;96.70;;;;;;5040498;28;20045;-73
2021/07/16 10:45:31;;;;;;;2.50;1.13;;;25.10;96.70;;;;;;4958141;28;20050;-72
2021/07/16 10:48:16;;;;;;;3.58;1.08;;;25.20;96.70;;;;;;4986600;28;20085;-73
2021/07/16 10:50:45;;;;;;;1.92;1.10;;;25.40;96.70;;;;;;4978385;28;20050;-73
2021/07/16 10:53:37;;;;;;;5.35;1.35;;;25.40;96.70;;;;;;4974267;28;20054;-73
2021/07/16 10:56:10;;;;;;;2.90;1.00;;;25.40;96.70;;;;;;4958910;28;20076;-73
2021/07/16 10:58:43;;;;;;;4.32;1.27;;;25.60;96.70;;;;;;4969204;28;20089;-73
2021/07/16 11:01:13;;;;;;;2.90;1.23;;;25.80;96.70;;;;;;4963269;28;20146;-73
2021/07/16 11:03:44;;;;;;;2.65;1.10;;;25.90;96.70;;;;;;4961256;28;20060;-73
2021/07/16 11:06:15;;;;;;;2.25;0.90;;;25.90;96.70;;;;;;4971341;28;20452;-73
2021/07/16 11:09:01;;;;;;;6.07;1.60;;;25.80;96.70;;;;;;4974185;28;20048;-73
2021/07/16 11:11:38;;;;;;;5.65;1.33;;;26.00;96.70;;;;;;4970184;28;20101;-73
2021/07/16 11:14:20;;;;;;;2.78;1.40;;;26.10;96.70;;;;;;4946194;28;20050;-73
2021/07/16 11:16:49;;;;;;;1.92;1.30;;;26.10;96.70;;;;;;4977091;28;20228;-73
2021/07/16 11:19:23;;;;;;;2.85;1.30;;;26.10;96.70;;;;;;4993593;28;20040;-73
2021/07/16 11:21:58;;;;;;;2.50;1.20;;;26.10;96.70;;;;;;5045673;28;20397;-73
2021/07/16 11:24:34;;;;;;;4.53;1.45;;;26.20;96.70;;;;;;5059006;28;20044;-73
2021/07/16 11:27:07;;;;;;;4.60;1.33;;;26.20;96.70;;;;;;5054189;28;20072;-73
2021/07/16 11:29:36;;;;;;;4.07;1.50;;;26.30;96.70;;;;;;5060956;28;20040;-73
2021/07/16 11:32:13;;;;;;;1.83;1.27;;;26.30;96.70;;;;;;5027564;28;20597;-73
2021/07/16 11:34:53;;;;;;;3.40;1.23;;;26.30;96.70;;;;;;5057709;28;20071;-73
2021/07/16 11:37:29;;;;;;;2.83;1.60;;;26.40;96.70;;;;;;5020921;28;20109;-73
2021/07/16 11:40:04;;;;;;;1.92;1.15;;;26.40;96.70;;;;;;5061415;28;20588;-73
2021/07/16 11:42:35;;;;;;;4.03;1.30;;;26.50;96.70;;;;;;5043116;28;20045;-73
2021/07/16 11:45:06;;;;;;;2.75;1.13;;;26.60;96.70;;;;;;5041327;28;20634;-73
2021/07/16 11:47:34;;;;;;;3.35;1.30;;;26.70;96.70;;;;;;5058822;28;20040;-73
2021/07/16 11:50:06;;;;;;;3.75;1.50;;;26.80;96.70;;;;;;5041036;28;20041;-73
2021/07/16 11:52:36;;;;;;;4.53;1.38;;;26.80;96.70;;;;;;5057520;28;20466;-73
2021/07/16 11:55:07;;;;;;;3.17;1.40;;;26.90;96.70;;;;;;5058264;28;20077;-73
2021/07/16 11:57:52;;;;;;;2.55;1.52;;;27.00;96.70;;;;;;5058513;28;20040;-73
2021/07/16 12:00:22;;;;;;;2.90;1.50;;;27.10;96.70;;;;;;5063557;28;20049;-73
2021/07/16 12:02:58;;;;;;;2.17;1.40;;;27.00;96.40;;;;;;5038033;28;20097;-73
2021/07/16 12:05:28;;;;;;;3.47;1.40;;;26.90;96.70;;;;;;5060775;28;20044;-73
2021/07/16 12:07:57;;;;;;;2.67;1.50;;;26.80;96.70;;;;;;5042731;28;20093;-73
2021/07/16 12:10:25;;;;;;;2.25;1.40;;;26.80;96.70;;;;;;5027655;28;20059;-73
2021/07/16 12:13:02;;;;;;;4.13;1.60;;;26.90;96.70;;;;;;5056793;28;20044;-73
2021/07/16 12:15:30;;;;;;;4.22;1.40;;;27.10;96.70;;;;;;5041245;28;20057;-73
2021/07/16 12:18:00;;;;;;;2.63;1.20;;;27.10;96.40;;;;;;5058667;28;20048;-73
2021/07/16 12:20:32;;;;;;;2.75;1.10;;;26.80;96.20;;;;;;5038749;28;20135;-73
2021/07/16 12:23:08;;;;;;;3.58;1.35;;;26.70;96.30;;;;;;5060290;28;20044;-73
2021/07/16 12:25:37;;;;;;;;;;;27.10;96.50;;;;;;5058816;28;20036;-74
2021/07/16 12:28:15;;;;;;;4.15;1.55;;;27.40;95.80;;;;;;5041020;28;19925;-73
2021/07/16 12:30:44;;;;;;;2.67;1.27;;;27.50;95.80;;;;;;5040901;28;20487;-74
2021/07/16 12:33:13;;;;;;;2.33;1.67;;;27.30;96.00;;;;;;5043263;28;20053;-74
2021/07/16 12:35:44;;;;;;;3.38;1.40;;;27.40;95.50;;;;;;5053396;28;20135;-74
2021/07/16 12:38:15;;;;;;;3.38;1.77;;;27.80;96.20;;;;;;5057023;28;20079;-74
2021/07/16 12:40:45;;;;;;;2.95;1.42;;;28.10;95.40;;;;;;5057949;28;20040;-74
2021/07/16 12:43:15;;;;;;;3.85;1.35;;;28.30;94.70;;;;;;5061545;28;20044;-74
2021/07/16 12:45:52;;;;;;;3.40;1.52;;;28.30;93.70;;;;;;5054573;28;20045;-74
2021/07/16 12:48:29;;;;;;;2.33;1.45;;;28.30;94.30;;;;;;5042013;28;20327;-74
2021/07/16 12:51:09;;;;;;;3.55;1.20;;;28.50;94.10;;;;;;5060001;28;20122;-74
2021/07/16 12:53:42;;;;;;;3.30;1.33;;;28.70;92.20;;;;;;5042673;28;20108;-74
2021/07/16 12:56:19;;;;;;;3.72;1.55;;;28.80;93.10;;;;;;5061905;28;20049;-74
2021/07/16 12:58:49;;;;;;;2.75;1.33;;;29.10;92.70;;;;;;5057819;28;20048;-74
2021/07/16 13:01:25;;;;;;;2.70;1.35;;;29.20;91.70;;;;;;5043018;28;20028;-74
2021/07/16 13:03:54;;;;;;;1.77;1.10;;;29.20;91.70;;;;;;5059905;28;20048;-74
2021/07/16 13:06:28;;;;;;;2.65;1.38;;;29.40;91.30;;;;;;5042545;28;20040;-74